Time;durP1;ratioP1;P1;durP2;ratioP2;P2;SDS_P1;SDS_P2;PMS_P1;PMS_P2;Temp;Humidity;BMP_temperature;BMP_pressure;BME280_temperature;BME280_humidity;BME280_pressure;Samples;Min_cycle;Max_cycle;Signal;HPM_P1;HPM_P2
2022/07/21 00:00:03;;;;;;;;;;;;;;;21.70;61.58;101635.91;5028847;28;20007;-84
2022/07/21 00:02:29;;;;;;;;;;;;;;;21.77;60.39;101639.84;5026879;28;19921;-84
2022/07/21 00:04:54;;;;;;;;;;;;;;;21.78;61.06;101638.88;5024555;28;19960;-84
2022/07/21 00:07:19;;;;;;;;;;;;;;;21.87;59.73;101637.34;5027431;28;19921;-83
2022/07/21 00:09:44;;;;;;;;;;;;;;;21.76;59.27;101638.13;5007606;28;19921;-84
2022/07/21 00:12:10;;;;;;;;;;;;;;;21.62;61.23;101640.97;5023741;28;19929;-84
2022/07/21 00:14:35;;;;;;;;;;;;;;;21.50;60.67;101644.59;5019958;28;19921;-83
2022/07/21 00:17:00;;;;;;;;;;;;;;;21.57;61.49;101640.47;5027467;28;19921;-83
2022/07/21 00:19:25;;;;;;;;;;;;;;;21.45;62.56;101634.16;5028092;28;19921;-84
2022/07/21 00:21:51;;;;;;;;;;;;;;;21.37;63.90;101639.25;5024921;28;19928;-84
2022/07/21 00:24:16;;;;;;;;;;;;;;;21.32;61.96;101654.88;5028603;28;19990;-83
2022/07/21 00:26:42;;;;;;;;;;;;;;;21.29;60.55;101653.22;5026850;28;20000;-84
2022/07/21 00:29:07;;;;;;;;;;;;;;;21.33;60.52;101653.88;5027255;28;19979;-83
2022/07/21 00:31:32;;;;;;;;;;;;;;;21.26;62.15;101648.03;5024152;28;19932;-83
2022/07/21 00:33:57;;;;;;;;;;;;;;;21.23;61.67;101648.28;5027506;28;19951;-83
2022/07/21 00:36:23;;;;;;;;;;;;;;;21.30;60.89;101638.78;5024363;28;19970;-83
2022/07/21 00:38:48;;;;;;;;;;;;;;;21.32;60.57;101647.66;5025381;28;19921;-83
2022/07/21 00:41:13;;;;;;;;;;;;;;;21.29;62.74;101647.81;5027532;28;19987;-83
2022/07/21 00:43:38;;;;;;;;;;;;;;;21.24;62.24;101644.63;5027348;28;19929;-83
2022/07/21 00:46:04;;;;;;;;;;;;;;;21.18;62.35;101647.75;5025293;28;20288;-83
2022/07/21 00:48:29;;;;;;;;;;;;;;;21.17;61.43;101640.66;5026711;28;19925;-83
2022/07/21 00:50:54;;;;;;;;;;;;;;;21.21;62.40;101633.22;5026281;28;19928;-84
2022/07/21 00:53:20;;;;;;;;;;;;;;;21.30;61.02;101643.31;5009769;28;19992;-83
2022/07/21 00:55:46;;;;;;;;;;;;;;;21.24;61.18;101646.44;5024978;28;19924;-83
2022/07/21 00:58:11;;;;;;;;;;;;;;;21.18;63.80;101637.00;5007050;28;19921;-83
2022/07/21 01:00:37;;;;;;;;;;;;;;;21.15;60.86;101635.38;5008543;28;20039;-83
2022/07/21 01:03:02;;;;;;;;;;;;;;;21.25;60.19;101634.72;5027590;28;19940;-84
2022/07/21 01:05:27;;;;;;;;;;;;;;;21.35;60.34;101633.09;5027618;28;19924;-83
2022/07/21 01:07:54;;;;;;;;;;;;;;;21.35;60.93;101615.13;5033290;28;19917;-83
2022/07/21 01:10:20;;;;;;;;;;;;;;;21.35;60.44;101614.28;5035369;28;19956;-83
2022/07/21 01:12:46;;;;;;;;;;;;;;;21.36;62.63;101616.00;5032139;28;19921;-83
2022/07/21 01:15:12;;;;;;;;;;;;;;;21.28;63.11;101616.53;5034030;28;20023;-83
2022/07/21 01:17:38;;;;;;;;;;;;;;;21.18;63.73;101612.78;5035309;28;20372;-84
2022/07/21 01:20:05;;;;;;;;;;;;;;;21.02;62.47;101618.41;5014352;28;20024;-84
2022/07/21 01:22:31;;;;;;;;;;;;;;;20.91;63.10;101612.94;5033676;28;20035;-83
2022/07/21 01:24:56;;;;;;;;;;;;;;;20.92;64.25;101614.66;5034474;28;19923;-83
2022/07/21 01:27:24;;;;;;;;;;;;;;;20.82;67.06;101616.28;5032792;28;19921;-83
2022/07/21 01:29:49;;;;;;;;;;;;;;;20.76;63.56;101608.66;5004555;28;19967;-83
2022/07/21 01:32:14;;;;;;;;;;;;;;;20.79;61.75;101611.97;5032042;28;19925;-83
2022/07/21 01:34:39;;;;;;;;;;;;;;;20.70;65.25;101614.47;5031651;28;19917;-83
2022/07/21 01:37:05;;;;;;;;;;;;;;;20.68;64.15;101621.78;5032270;28;19922;-84
2022/07/21 01:42:14;;;;;;;;;;;;;;;20.61;66.31;101618.63;5031556;28;19928;-84
2022/07/21 01:44:39;;;;;;;;;;;;;;;20.56;64.07;101615.41;5033672;28;20003;-84
2022/07/21 01:47:04;;;;;;;;;;;;;;;20.63;65.76;101624.78;5031435;28;19955;-83
2022/07/21 01:49:29;;;;;;;;;;;;;;;20.69;64.26;101626.19;5031721;28;19921;-83
2022/07/21 01:51:55;;;;;;;;;;;;;;;20.64;68.49;101610.38;5012527;28;20008;-83
2022/07/21 01:54:20;;;;;;;;;;;;;;;20.66;66.13;101604.88;5034890;28;20036;-83
2022/07/21 01:56:45;;;;;;;;;;;;;;;20.65;64.75;101614.78;5029130;28;19952;-83
2022/07/21 01:59:10;;;;;;;;;;;;;;;20.59;67.62;101621.44;5033448;28;19913;-83
2022/07/21 02:01:36;;;;;;;;;;;;;;;20.50;67.20;101621.22;5031567;28;20380;-84
2022/07/21 02:04:02;;;;;;;;;;;;;;;20.59;64.46;101610.69;5029650;28;19979;-83
2022/07/21 02:06:28;;;;;;;;;;;;;;;20.72;65.29;101616.09;5032674;28;19917;-83
2022/07/21 02:08:53;;;;;;;;;;;;;;;20.71;68.54;101625.13;5033677;28;20279;-83
2022/07/21 02:11:19;;;;;;;;;;;;;;;20.60;68.47;101633.91;5013617;28;20524;-84
2022/07/21 02:13:45;;;;;;;;;;;;;;;20.59;67.08;101623.28;5032918;28;19924;-84
2022/07/21 02:16:10;;;;;;;;;;;;;;;20.52;66.16;101627.38;5033813;28;20273;-84
2022/07/21 02:18:35;;;;;;;;;;;;;;;20.61;66.51;101624.91;5028235;28;19920;-84
2022/07/21 02:21:01;;;;;;;;;;;;;;;20.68;67.32;101613.72;5028906;28;19978;-84
2022/07/21 02:23:26;;;;;;;;;;;;;;;20.69;64.98;101610.06;5029859;28;20004;-83
2022/07/21 02:25:52;;;;;;;;;;;;;;;20.65;66.03;101609.41;5030707;28;20353;-84
2022/07/21 02:28:17;;;;;;;;;;;;;;;20.70;64.46;101612.63;5029461;28;19917;-84
2022/07/21 02:30:43;;;;;;;;;;;;;;;20.71;64.93;101603.63;5028324;28;20296;-84
2022/07/21 02:33:08;;;;;;;;;;;;;;;20.70;65.49;101607.25;5028711;28;20004;-84
2022/07/21 02:35:34;;;;;;;;;;;;;;;20.61;65.11;101602.53;5028438;28;20439;-84
2022/07/21 02:37:59;;;;;;;;;;;;;;;20.54;65.41;101602.09;5028036;28;20288;-83
2022/07/21 02:40:24;;;;;;;;;;;;;;;20.52;66.54;101611.25;5007347;28;19917;-84
2022/07/21 02:42:49;;;;;;;;;;;;;;;20.49;64.89;101614.16;5014030;28;20489;-83
2022/07/21 02:45:15;;;;;;;;;;;;;;;20.38;67.21;101615.72;5029253;28;19917;-83
2022/07/21 02:47:52;;;;;;;;;;;;;;;20.36;66.97;101608.72;5030134;28;20304;-84
2022/07/21 02:50:18;;;;;;;;;;;;;;;20.44;66.56;101602.81;5027839;28;20012;-83
2022/07/21 02:52:43;;;;;;;;;;;;;;;20.35;67.22;101597.13;5028213;28;19951;-84
2022/07/21 02:55:09;;;;;;;;;;;;;;;20.47;67.56;101591.84;5029601;28;19933;-84
2022/07/21 02:57:34;;;;;;;;;;;;;;;20.29;67.86;101591.31;5030133;28;20171;-84
2022/07/21 02:59:59;;;;;;;;;;;;;;;20.25;66.90;101596.03;5028108;28;20369;-83
2022/07/21 03:02:24;;;;;;;;;;;;;;;20.28;66.73;101605.69;5028392;28;20111;-84
2022/07/21 03:04:50;;;;;;;;;;;;;;;20.32;68.76;101612.59;5025642;28;19917;-84
2022/07/21 03:07:15;;;;;;;;;;;;;;;20.35;69.43;101607.00;5029618;28;20376;-85
2022/07/21 03:09:40;;;;;;;;;;;;;;;20.31;68.01;101598.28;5022678;28;19921;-84
2022/07/21 03:12:07;;;;;;;;;;;;;;;20.25;68.13;101595.19;5027909;28;19924;-83
2022/07/21 03:14:32;;;;;;;;;;;;;;;20.11;70.56;101590.75;5028877;28;19919;-85
2022/07/21 03:16:58;;;;;;;;;;;;;;;20.19;70.38;101600.97;5027144;28;20008;-84
2022/07/21 03:19:23;;;;;;;;;;;;;;;20.18;69.92;101596.56;5025765;28;20015;-84
2022/07/21 03:21:49;;;;;;;;;;;;;;;20.22;68.91;101593.56;5025775;28;20416;-85
2022/07/21 03:24:14;;;;;;;;;;;;;;;20.21;68.25;101599.91;5025557;28;19925;-84
2022/07/21 03:26:39;;;;;;;;;;;;;;;20.23;66.70;101597.09;5028161;28;19963;-84
2022/07/21 03:29:04;;;;;;;;;;;;;;;20.32;68.47;101597.31;5026583;28;19983;-84
2022/07/21 03:31:29;;;;;;;;;;;;;;;20.35;68.69;101594.44;5028120;28;19925;-84
2022/07/21 03:33:54;;;;;;;;;;;;;;;20.35;69.47;101590.91;5026081;28;19930;-84
2022/07/21 03:36:22;;;;;;;;;;;;;;;20.22;68.91;101596.25;5024358;28;20281;-84
2022/07/21 03:38:47;;;;;;;;;;;;;;;20.20;69.28;101592.81;5012543;28;20407;-84
2022/07/21 03:41:13;;;;;;;;;;;;;;;20.17;68.59;101598.38;5028662;28;19921;-84
2022/07/21 03:43:38;;;;;;;;;;;;;;;20.20;70.29;101598.19;5007110;28;19921;-84
2022/07/21 03:46:03;;;;;;;;;;;;;;;20.26;67.75;101597.75;5027602;28;20291;-84
2022/07/21 03:48:28;;;;;;;;;;;;;;;20.35;67.26;101601.63;5023810;28;19927;-84
2022/07/21 03:50:53;;;;;;;;;;;;;;;20.30;67.98;101603.78;5025608;28;19918;-84
2022/07/21 03:53:19;;;;;;;;;;;;;;;20.24;68.46;101606.91;5028110;28;19917;-84
2022/07/21 03:55:45;;;;;;;;;;;;;;;20.20;68.09;101608.94;5023931;28;20021;-84
2022/07/21 03:58:12;;;;;;;;;;;;;;;20.24;67.89;101607.75;5031509;28;19913;-84
2022/07/21 04:00:38;;;;;;;;;;;;;;;20.26;69.07;101618.38;5026986;28;19921;-84
2022/07/21 04:03:04;;;;;;;;;;;;;;;20.14;70.24;101620.06;5027929;28;20289;-83
2022/07/21 04:05:30;;;;;;;;;;;;;;;20.19;68.75;101615.28;5005137;28;19951;-83
2022/07/21 04:07:55;;;;;;;;;;;;;;;20.18;69.39;101616.22;5026539;28;19940;-85
2022/07/21 04:10:24;;;;;;;;;;;;;;;20.15;70.59;101613.75;5027395;28;19966;-85
2022/07/21 04:12:49;;;;;;;;;;;;;;;20.18;69.17;101618.03;5025409;28;20427;-84
2022/07/21 04:15:14;;;;;;;;;;;;;;;20.23;68.69;101608.69;5027108;28;20234;-85
2022/07/21 04:17:40;;;;;;;;;;;;;;;20.26;68.23;101613.88;5029500;28;19921;-85
2022/07/21 04:20:06;;;;;;;;;;;;;;;20.28;67.28;101614.59;5027554;28;19924;-84
2022/07/21 04:22:31;;;;;;;;;;;;;;;20.31;68.54;101611.72;5006378;28;20331;-84
2022/07/21 04:24:56;;;;;;;;;;;;;;;20.28;67.84;101617.28;5024041;28;19917;-84
2022/07/21 04:27:21;;;;;;;;;;;;;;;20.35;67.88;101615.94;5028030;28;19917;-84
2022/07/21 04:29:47;;;;;;;;;;;;;;;20.28;68.37;101603.00;5026213;28;19917;-84
2022/07/21 04:32:12;;;;;;;;;;;;;;;20.25;68.21;101606.78;5023776;28;20015;-84
2022/07/21 04:34:37;;;;;;;;;;;;;;;20.22;67.88;101606.97;5027282;28;19925;-84
2022/07/21 04:37:02;;;;;;;;;;;;;;;20.28;67.35;101600.31;5025360;28;19925;-85
2022/07/21 04:39:28;;;;;;;;;;;;;;;20.23;68.61;101606.00;5027277;28;19939;-85
2022/07/21 04:41:53;;;;;;;;;;;;;;;20.16;69.15;101604.72;5012298;28;19943;-84
2022/07/21 04:44:18;;;;;;;;;;;;;;;20.20;68.81;101611.63;5024865;28;19929;-85
2022/07/21 04:46:44;;;;;;;;;;;;;;;20.18;71.03;101610.84;5026795;28;19926;-84
2022/07/21 04:49:09;;;;;;;;;;;;;;;20.06;70.68;101609.88;5023319;28;19923;-84
2022/07/21 04:51:34;;;;;;;;;;;;;;;20.02;69.69;101610.19;5025168;28;19932;-83
2022/07/21 04:53:59;;;;;;;;;;;;;;;19.91;70.64;101616.28;5028702;28;19964;-84
2022/07/21 04:56:25;;;;;;;;;;;;;;;19.94;68.69;101613.38;5032041;28;20292;-84
2022/07/21 04:58:50;;;;;;;;;;;;;;;19.92;70.58;101609.94;5011808;28;20364;-84
2022/07/21 05:01:17;;;;;;;;;;;;;;;19.88;71.27;101608.41;5008858;28;20356;-83
2022/07/21 05:03:43;;;;;;;;;;;;;;;19.92;70.21;101611.78;5027098;28;19925;-83
2022/07/21 05:06:08;;;;;;;;;;;;;;;19.93;69.62;101613.47;5025883;28;19917;-83
2022/07/21 05:08:33;;;;;;;;;;;;;;;19.99;70.84;101621.09;5021210;28;20384;-84
2022/07/21 05:10:58;;;;;;;;;;;;;;;19.93;69.70;101619.72;5024728;28;20024;-83
2022/07/21 05:13:23;;;;;;;;;;;;;;;19.92;70.30;101622.50;5009227;28;20334;-84
2022/07/21 05:15:48;;;;;;;;;;;;;;;19.95;69.54;101615.09;5005813;28;19921;-83
2022/07/21 05:18:14;;;;;;;;;;;;;;;19.99;69.62;101621.97;5026804;28;20103;-83
2022/07/21 05:20:39;;;;;;;;;;;;;;;19.93;70.02;101608.09;5029806;28;20376;-83
2022/07/21 05:23:04;;;;;;;;;;;;;;;19.97;70.00;101609.63;5026790;28;19921;-85
2022/07/21 05:25:31;;;;;;;;;;;;;;;20.00;70.92;101612.09;5023254;28;20444;-84
2022/07/21 05:27:57;;;;;;;;;;;;;;;19.92;71.12;101612.63;5026713;28;19921;-84
2022/07/21 05:30:22;;;;;;;;;;;;;;;19.90;70.08;101616.34;5006705;28;20987;-83
2022/07/21 05:32:47;;;;;;;;;;;;;;;20.01;70.34;101612.00;5026500;28;19924;-84
2022/07/21 05:35:12;;;;;;;;;;;;;;;19.94;70.27;101610.69;5021738;28;21172;-84
2022/07/21 05:37:41;;;;;;;;;;;;;;;19.91;72.02;101613.59;5022998;28;20173;-84
2022/07/21 05:40:09;;;;;;;;;;;;;;;19.99;70.26;101611.22;5020801;28;19928;-85
2022/07/21 05:42:34;;;;;;;;;;;;;;;20.00;69.80;101609.41;5025617;28;19925;-84
2022/07/21 05:45:00;;;;;;;;;;;;;;;20.04;70.01;101610.91;5021928;28;20371;-84
2022/07/21 05:47:25;;;;;;;;;;;;;;;19.95;71.27;101606.16;5023364;28;20589;-83
2022/07/21 05:49:50;;;;;;;;;;;;;;;19.94;72.17;101616.06;5024796;28;19917;-84
2022/07/21 05:52:18;;;;;;;;;;;;;;;19.91;71.48;101616.28;5027995;28;19932;-83
2022/07/21 05:54:44;;;;;;;;;;;;;;;19.91;70.61;101608.22;5028546;28;19921;-84
2022/07/21 05:57:09;;;;;;;;;;;;;;;19.98;71.42;101597.91;5015382;28;19928;-84
2022/07/21 05:59:34;;;;;;;;;;;;;;;20.06;70.78;101600.97;5031610;28;19963;-84
2022/07/21 06:01:59;;;;;;;;;;;;;;;20.12;71.93;101606.75;5029962;28;19918;-84
2022/07/21 06:04:24;;;;;;;;;;;;;;;20.17;70.72;101605.59;5027668;28;20360;-84
2022/07/21 06:06:52;;;;;;;;;;;;;;;20.29;69.71;101615.50;5025811;28;19925;-84
2022/07/21 06:09:17;;;;;;;;;;;;;;;20.40;68.97;101607.53;5029199;28;20019;-84
2022/07/21 06:11:42;;;;;;;;;;;;;;;20.41;69.49;101600.34;5025084;28;20047;-84
2022/07/21 06:14:08;;;;;;;;;;;;;;;20.47;68.63;101607.97;5011249;28;19921;-84
2022/07/21 06:16:33;;;;;;;;;;;;;;;20.57;69.93;101606.41;5026673;28;19930;-84
2022/07/21 06:18:58;;;;;;;;;;;;;;;20.70;68.09;101599.19;5011167;28;20566;-84
2022/07/21 06:21:23;;;;;;;;;;;;;;;20.70;68.47;101606.41;5028717;28;19921;-83
2022/07/21 06:23:48;;;;;;;;;;;;;;;20.61;69.14;101605.22;5024594;28;19925;-84
2022/07/21 06:26:13;;;;;;;;;;;;;;;20.56;69.33;101608.25;5027816;28;20241;-84
2022/07/21 06:28:39;;;;;;;;;;;;;;;20.70;69.63;101603.69;5025679;28;19921;-84
2022/07/21 06:31:04;;;;;;;;;;;;;;;20.72;69.85;101602.66;5019579;28;20312;-85
2022/07/21 06:33:29;;;;;;;;;;;;;;;20.91;68.68;101601.34;5004640;28;19928;-84
2022/07/21 06:35:54;;;;;;;;;;;;;;;21.11;68.73;101595.38;5024318;28;19925;-85
2022/07/21 06:38:20;;;;;;;;;;;;;;;21.17;68.33;101592.25;5028839;28;19964;-84
2022/07/21 06:40:45;;;;;;;;;;;;;;;21.36;68.48;101602.56;5028024;28;19916;-84
2022/07/21 06:43:10;;;;;;;;;;;;;;;21.53;66.95;101602.16;5009940;28;19925;-85
2022/07/21 06:45:36;;;;;;;;;;;;;;;21.74;66.41;101613.16;5025183;28;19925;-84
2022/07/21 06:48:05;;;;;;;;;;;;;;;22.12;66.25;101612.97;5028971;28;19928;-85
2022/07/21 06:50:31;;;;;;;;;;;;;;;22.07;65.23;101619.66;5030863;28;19932;-84
2022/07/21 06:52:56;;;;;;;;;;;;;;;21.85;66.54;101621.28;5024527;28;19925;-85
2022/07/21 06:55:23;;;;;;;;;;;;;;;21.83;66.08;101617.88;5019507;28;21301;-86
2022/07/21 06:57:48;;;;;;;;;;;;;;;21.91;65.68;101615.44;5025292;28;19917;-86
2022/07/21 07:00:14;;;;;;;;;;;;;;;22.09;64.99;101621.25;5025679;28;20053;-87
2022/07/21 07:02:39;;;;;;;;;;;;;;;22.08;65.16;101630.31;5022434;28;19921;-87
2022/07/21 07:05:04;;;;;;;;;;;;;;;22.07;65.13;101625.06;5028363;28;19943;-87
2022/07/21 07:07:30;;;;;;;;;;;;;;;22.10;65.10;101622.09;5024185;28;20008;-88
2022/07/21 07:09:55;;;;;;;;;;;;;;;22.06;65.62;101631.44;5010569;28;19928;-88
2022/07/21 07:12:21;;;;;;;;;;;;;;;21.90;65.75;101637.09;5010377;28;19924;-87
2022/07/21 07:14:46;;;;;;;;;;;;;;;21.83;65.37;101636.72;5008306;28;19917;-88
2022/07/21 07:17:15;;;;;;;;;;;;;;;21.89;65.86;101636.22;5027240;28;19921;-88
2022/07/21 07:19:40;;;;;;;;;;;;;;;21.76;65.64;101624.66;5026801;28;19928;-87
2022/07/21 07:22:05;;;;;;;;;;;;;;;21.68;66.08;101629.75;5030238;28;19917;-88
2022/07/21 07:24:30;;;;;;;;;;;;;;;21.67;66.28;101621.81;5026538;28;19978;-88
2022/07/21 07:26:56;;;;;;;;;;;;;;;21.70;65.94;101625.13;5011781;28;20379;-87
2022/07/21 07:29:21;;;;;;;;;;;;;;;21.85;65.45;101618.59;5026351;28;20280;-88
2022/07/21 07:31:47;;;;;;;;;;;;;;;22.06;65.67;101629.59;5020709;28;19918;-87
2022/07/21 07:34:12;;;;;;;;;;;;;;;22.06;64.86;101631.44;5031523;28;19924;-87
2022/07/21 07:36:37;;;;;;;;;;;;;;;22.01;65.40;101633.56;5012333;28;20475;-88
2022/07/21 07:39:03;;;;;;;;;;;;;;;22.12;64.96;101630.97;5031015;28;20272;-88
2022/07/21 07:41:29;;;;;;;;;;;;;;;22.02;66.79;101638.00;5028029;28;20034;-87
2022/07/21 07:43:54;;;;;;;;;;;;;;;21.89;65.57;101628.16;5028048;28;20051;-87
2022/07/21 07:46:19;;;;;;;;;;;;;;;21.85;66.52;101626.66;5028401;28;20007;-87
2022/07/21 07:48:44;;;;;;;;;;;;;;;21.82;66.01;101628.72;5024792;28;19921;-88
2022/07/21 07:51:10;;;;;;;;;;;;;;;21.76;66.35;101630.03;5024364;28;19917;-88
2022/07/21 07:53:36;;;;;;;;;;;;;;;21.54;66.51;101643.38;5026418;28;19921;-88
2022/07/21 07:56:02;;;;;;;;;;;;;;;21.45;67.74;101633.28;5028406;28;19928;-87
2022/07/21 07:58:27;;;;;;;;;;;;;;;21.38;67.19;101633.75;5024357;28;19923;-86
2022/07/21 08:00:52;;;;;;;;;;;;;;;21.28;68.05;101638.06;5027826;28;20609;-83
2022/07/21 08:03:17;;;;;;;;;;;;;;;21.17;68.02;101637.97;5007199;28;19928;-83
2022/07/21 08:05:43;;;;;;;;;;;;;;;21.08;68.16;101634.13;5023024;28;19918;-83
2022/07/21 08:08:08;;;;;;;;;;;;;;;21.04;69.13;101642.50;5024408;28;20018;-84
2022/07/21 08:10:33;;;;;;;;;;;;;;;20.98;69.21;101643.78;5025610;28;20376;-82
2022/07/21 08:12:58;;;;;;;;;;;;;;;20.82;70.50;101648.53;5004705;28;19920;-82
2022/07/21 08:15:24;;;;;;;;;;;;;;;20.59;70.19;101647.47;5020029;28;20442;-82
2022/07/21 08:17:49;;;;;;;;;;;;;;;20.52;70.35;101644.34;5024168;28;20039;-83
2022/07/21 08:20:14;;;;;;;;;;;;;;;20.43;71.95;101646.78;5025997;28;19991;-82
2022/07/21 08:22:40;;;;;;;;;;;;;;;20.33;71.95;101643.84;5012407;28;19983;-84
2022/07/21 08:25:06;;;;;;;;;;;;;;;20.16;71.80;101647.69;5022187;28;20451;-82
2022/07/21 08:27:31;;;;;;;;;;;;;;;20.19;71.83;101655.53;5007805;28;20015;-83
2022/07/21 08:29:56;;;;;;;;;;;;;;;20.17;71.09;101654.78;5027952;28;20015;-84
2022/07/21 08:32:21;;;;;;;;;;;;;;;20.16;72.97;101653.06;5021787;28;20127;-83
2022/07/21 08:34:47;;;;;;;;;;;;;;;20.22;72.24;101649.09;5020751;28;19928;-84
2022/07/21 08:37:12;;;;;;;;;;;;;;;20.04;74.31;101645.81;5022358;28;19925;-83
2022/07/21 08:39:37;;;;;;;;;;;;;;;20.07;71.93;101648.31;5024360;28;19917;-82
2022/07/21 08:42:02;;;;;;;;;;;;;;;20.17;73.17;101652.09;5021286;28;20020;-83
2022/07/21 08:44:27;;;;;;;;;;;;;;;20.24;74.80;101656.09;5022622;28;19921;-83
2022/07/21 08:46:53;;;;;;;;;;;;;;;20.29;72.11;101651.28;5026417;28;20354;-83
2022/07/21 08:49:22;;;;;;;;;;;;;;;20.31;73.35;101648.47;5026298;28;19917;-83
2022/07/21 08:51:48;;;;;;;;;;;;;;;20.21;72.76;101653.59;5020496;28;19917;-82
2022/07/21 08:54:13;;;;;;;;;;;;;;;20.22;75.32;101652.63;5027134;28;19967;-83
2022/07/21 08:56:39;;;;;;;;;;;;;;;20.24;73.70;101653.41;5027441;28;19925;-83
2022/07/21 08:59:05;;;;;;;;;;;;;;;20.15;74.41;101653.16;5025693;28;19925;-83
2022/07/21 09:01:30;;;;;;;;;;;;;;;20.12;74.87;101651.53;5021890;28;19972;-83
2022/07/21 09:04:16;;;;;;;;;;;;;;;20.15;74.21;101647.81;5022383;28;19929;-84
2022/07/21 09:06:52;;;;;;;;;;;;;;;20.13;74.20;101653.25;5026120;28;20380;-83
2022/07/21 09:09:19;;;;;;;;;;;;;;;20.16;74.57;101653.06;5015667;28;20322;-83
2022/07/21 09:11:44;;;;;;;;;;;;;;;20.23;74.56;101646.28;5020409;28;19928;-83
2022/07/21 09:14:11;;;;;;;;;;;;;;;20.18;73.52;101653.81;5027205;28;19917;-83
2022/07/21 09:16:38;;;;;;;;;;;;;;;20.26;73.90;101651.47;5027605;28;19917;-83
2022/07/21 09:19:04;;;;;;;;;;;;;;;20.32;75.16;101651.03;5025888;28;19917;-82
2022/07/21 09:21:30;;;;;;;;;;;;;;;20.24;74.61;101653.41;5019145;28;19917;-82
2022/07/21 09:24:16;;;;;;;;;;;;;;;20.23;73.98;101651.66;5022760;28;19936;-83
2022/07/21 09:26:56;;;;;;;;;;;;;;;20.28;72.92;101660.25;5024449;28;19925;-84
2022/07/21 09:29:21;;;;;;;;;;;;;;;20.41;73.91;101670.19;5026852;28;19963;-84
2022/07/21 09:31:47;;;;;;;;;;;;;;;20.49;72.52;101659.81;5008462;28;19952;-84
2022/07/21 09:34:13;;;;;;;;;;;;;;;20.48;73.34;101672.38;5024828;28;20352;-84
2022/07/21 09:36:38;;;;;;;;;;;;;;;20.55;73.90;101664.75;5021805;28;19928;-83
2022/07/21 09:39:03;;;;;;;;;;;;;;;20.62;72.78;101677.66;5028569;28;19967;-84
2022/07/21 09:41:29;;;;;;;;;;;;;;;20.70;71.94;101674.44;5028002;28;21632;-83
2022/07/21 09:43:57;;;;;;;;;;;;;;;20.72;73.01;101677.88;5026485;28;19952;-84
2022/07/21 09:46:24;;;;;;;;;;;;;;;20.78;72.59;101681.97;5033342;28;20384;-83
2022/07/21 09:48:53;;;;;;;;;;;;;;;20.84;71.16;101682.41;5011165;28;19983;-84
2022/07/21 09:51:37;;;;;;;;;;;;;;;20.88;71.91;101686.59;5022743;28;19917;-84
2022/07/21 09:54:09;;;;;;;;;;;;;;;20.88;72.57;101685.72;5027805;28;20398;-84
2022/07/21 09:56:36;;;;;;;;;;;;;;;20.84;72.15;101682.41;5026449;28;19921;-84
2022/07/21 09:59:02;;;;;;;;;;;;;;;20.79;71.95;101681.00;5031903;28;19921;-83
2022/07/21 10:01:28;;;;;;;;;;;;;;;20.73;71.93;101682.28;5028602;28;19917;-84
2022/07/21 10:03:55;;;;;;;;;;;;;;;20.64;71.79;101685.63;5030274;28;20380;-84
2022/07/21 10:06:23;;;;;;;;;;;;;;;20.54;72.53;101692.59;5025652;28;19921;-83
2022/07/21 10:08:48;;;;;;;;;;;;;;;20.55;72.08;101694.31;5030200;28;19924;-83
2022/07/21 10:11:14;;;;;;;;;;;;;;;20.52;72.94;101702.59;5026391;28;19921;-84
2022/07/21 10:13:40;;;;;;;;;;;;;;;20.43;73.27;101701.34;5031386;28;19921;-83
2022/07/21 10:16:07;;;;;;;;;;;;;;;20.36;72.37;101700.91;5029542;28;19932;-83
2022/07/21 10:18:56;;;;;;;;;;;;;;;20.39;71.53;101697.16;5019354;28;19921;-84
2022/07/21 10:21:36;;;;;;;;;;;;;;;20.41;72.42;101705.97;4991173;28;19970;-83
2022/07/21 10:24:02;;;;;;;;;;;;;;;20.50;72.18;101707.19;5022966;28;19979;-84
2022/07/21 10:26:27;;;;;;;;;;;;;;;20.57;70.98;101716.56;5023986;28;19917;-84
2022/07/21 10:28:53;;;;;;;;;;;;;;;20.69;71.70;101715.72;5022832;28;20373;-84
2022/07/21 10:31:22;;;;;;;;;;;;;;;20.69;72.08;101722.91;5029209;28;19963;-84
2022/07/21 10:33:50;;;;;;;;;;;;;;;20.64;72.15;101723.22;5023200;28;19918;-84
2022/07/21 10:36:21;;;;;;;;;;;;;;;20.66;71.75;101728.50;5024583;28;19924;-84
2022/07/21 10:38:46;;;;;;;;;;;;;;;20.61;71.73;101723.44;5019274;28;20015;-83
2022/07/21 10:41:31;;;;;;;;;;;;;;;20.60;72.04;101729.78;5021482;28;20008;-83
2022/07/21 10:43:56;;;;;;;;;;;;;;;20.64;70.93;101731.28;5021249;28;20384;-83
2022/07/21 10:46:31;;;;;;;;;;;;;;;20.66;71.32;101737.44;5022140;28;19923;-83
2022/07/21 10:48:56;;;;;;;;;;;;;;;20.55;71.88;101732.78;5026260;28;19967;-84
2022/07/21 10:51:23;;;;;;;;;;;;;;;20.62;71.20;101735.94;5022890;28;20380;-84
2022/07/21 10:54:09;;;;;;;;;;;;;;;20.71;71.26;101731.75;5027608;28;19913;-85
2022/07/21 10:56:34;;;;;;;;;;;;;;;20.79;70.74;101740.13;5018919;28;19921;-85
2022/07/21 10:58:59;;;;;;;;;;;;;;;20.84;70.60;101741.56;5027759;28;20441;-85
2022/07/21 11:01:25;;;;;;;;;;;;;;;20.81;70.89;101741.75;5022488;28;20402;-84
2022/07/21 11:04:09;;;;;;;;;;;;;;;20.68;71.05;101740.88;5025432;28;20002;-84
2022/07/21 11:06:35;;;;;;;;;;;;;;;20.57;71.31;101744.31;5021164;28;19922;-83
2022/07/21 11:09:03;;;;;;;;;;;;;;;20.59;71.32;101741.50;5027964;28;20376;-83
2022/07/21 11:11:30;;;;;;;;;;;;;;;20.57;70.82;101738.94;5024291;28;19947;-83
2022/07/21 11:14:04;;;;;;;;;;;;;;;20.58;70.81;101740.63;5024480;28;19928;-84
2022/07/21 11:16:41;;;;;;;;;;;;;;;20.64;70.72;101736.66;5026875;28;20361;-83
2022/07/21 11:19:25;;;;;;;;;;;;;;;20.56;70.69;101742.59;5030173;28;19921;-84
2022/07/21 11:21:50;;;;;;;;;;;;;;;20.59;70.56;101742.34;5028601;28;19917;-84
2022/07/21 11:24:19;;;;;;;;;;;;;;;20.59;70.17;101745.03;5029379;28;19928;-84
2022/07/21 11:26:44;;;;;;;;;;;;;;;20.63;70.49;101749.25;5028658;28;20031;-83
2022/07/21 11:29:09;;;;;;;;;;;;;;;20.59;70.10;101752.25;5028780;28;19928;-84
2022/07/21 11:31:47;;;;;;;;;;;;;;;20.54;70.83;101746.31;5025960;28;19960;-84
2022/07/21 11:34:12;;;;;;;;;;;;;;;20.43;70.55;101754.22;5008767;28;19999;-84
2022/07/21 11:36:38;;;;;;;;;;;;;;;20.30;71.36;101749.66;5023565;28;19922;-83
2022/07/21 11:39:07;;;;;;;;;;;;;;;20.23;70.74;101761.75;5028954;28;20004;-84
2022/07/21 11:41:34;;;;;;;;;;;;;;;20.18;71.65;101750.47;5023001;28;19925;-84
2022/07/21 11:43:59;;;;;;;;;;;;;;;20.13;71.97;101752.59;5030040;28;19925;-83
2022/07/21 11:46:24;;;;;;;;;;;;;;;20.14;71.86;101757.00;5010885;28;19925;-84
2022/07/21 11:49:00;;;;;;;;;;;;;;;20.10;71.67;101766.25;5007913;28;19914;-83
2022/07/21 11:51:25;;;;;;;;;;;;;;;20.07;71.29;101767.28;5022182;28;20311;-83
2022/07/21 11:53:50;;;;;;;;;;;;;;;19.98;72.52;101762.53;5008165;28;19920;-83
2022/07/21 11:56:15;;;;;;;;;;;;;;;19.92;72.44;101768.28;5025207;28;19921;-83
2022/07/21 11:58:42;;;;;;;;;;;;;;;19.84;73.31;101758.03;5008460;28;19929;-82
2022/07/21 12:01:08;;;;;;;;;;;;;;;19.72;73.30;101756.13;5025092;28;19923;-83
2022/07/21 12:03:33;;;;;;;;;;;;;;;19.64;72.77;101760.28;5026773;28;20323;-84
2022/07/21 12:06:02;;;;;;;;;;;;;;;19.62;73.66;101773.78;5029528;28;19922;-84
2022/07/21 12:08:28;;;;;;;;;;;;;;;19.56;73.06;101769.63;5028690;28;19925;-84
2022/07/21 12:11:04;;;;;;;;;;;;;;;19.57;72.72;101770.50;5023623;28;20292;-84
2022/07/21 12:13:29;;;;;;;;;;;;;;;19.54;73.98;101762.66;5026653;28;19928;-85
2022/07/21 12:15:55;;;;;;;;;;;;;;;19.55;73.94;101765.25;5008651;28;19925;-85
2022/07/21 12:18:23;;;;;;;;;;;;;;;19.55;74.68;101761.69;5028977;28;20028;-84
2022/07/21 12:20:49;;;;;;;;;;;;;;;19.58;74.42;101758.81;5009839;28;20442;-84
2022/07/21 12:23:24;;;;;;;;;;;;;;;19.62;72.85;101760.38;5008339;28;19925;-84
2022/07/21 12:25:50;;;;;;;;;;;;;;;19.67;72.60;101768.97;5023499;28;19928;-85
2022/07/21 12:28:15;;;;;;;;;;;;;;;19.66;72.39;101759.22;5024735;28;20311;-85
2022/07/21 12:30:42;;;;;;;;;;;;;;;19.71;74.21;101773.19;5008926;28;20017;-83
2022/07/21 12:33:07;;;;;;;;;;;;;;;19.70;73.51;101768.78;5032147;28;20368;-85